createdAt,value
2023-02-15T00:02:55.742Z,47.95
2023-02-15T00:08:00.843Z,47.03
2023-02-15T00:13:03.438Z,43.88
2023-02-15T00:18:05.264Z,52.85
2023-02-15T00:23:07.076Z,48.50
2023-02-15T00:28:08.817Z,49.28
2023-02-15T00:33:10.582Z,50.30
2023-02-15T00:38:13.637Z,46.08
2023-02-15T00:43:15.409Z,53.28
2023-02-15T00:48:17.625Z,45.63
2023-02-15T00:53:19.669Z,45.78
2023-02-15T00:58:21.744Z,51.47
2023-02-15T01:03:23.547Z,46.88
2023-02-15T01:08:25.763Z,50.35
2023-02-15T01:13:27.543Z,53.13
2023-02-15T01:18:29.447Z,55.17
2023-02-15T01:23:31.204Z,52.20
2023-02-15T01:28:33.702Z,52.10
2023-02-15T01:33:37.089Z,47.42
2023-02-15T01:38:40.682Z,48.88
2023-02-15T01:43:44.717Z,51.58
2023-02-15T01:48:51.582Z,51.25
2023-02-15T01:53:58.604Z,53.45
2023-02-15T01:59:05.981Z,45.78
2023-02-15T02:04:14.447Z,52.45
2023-02-15T02:09:16.772Z,48.88
2023-02-15T02:14:19.028Z,51.38
2023-02-15T02:20:06.298Z,50.45
2023-02-15T02:25:29.587Z,56.13
2023-02-15T02:30:38.118Z,51.50
2023-02-15T02:35:54.950Z,50.00
2023-02-15T02:41:14.683Z,59.53
2023-02-15T02:46:27.390Z,45.08
2023-02-15T02:51:29.217Z,51.28
2023-02-15T02:56:43.315Z,54.47
2023-02-15T03:01:58.929Z,58.70
2023-02-15T03:07:04.162Z,52.25
2023-02-15T03:12:06.148Z,52.95
2023-02-15T03:17:09.246Z,51.83
2023-02-15T03:22:20.382Z,50.00
2023-02-15T03:27:28.579Z,54.40
2023-02-15T03:32:32.052Z,53.00
2023-02-15T03:37:39.169Z,48.83
2023-02-15T03:42:41.594Z,54.33
2023-02-15T03:47:50.713Z,49.28
2023-02-15T03:52:53.735Z,44.38
2023-02-15T03:58:18.977Z,57.17
2023-02-15T04:03:35.603Z,56.70
2023-02-15T04:09:03.409Z,52.25
2023-02-15T04:14:25.169Z,51.28
2023-02-15T04:19:45.631Z,58.70
2023-02-15T04:25:06.015Z,38.92
2023-02-15T04:30:09.408Z,47.15
2023-02-15T04:35:11.348Z,59.72
2023-02-15T04:40:18.687Z,60.35
2023-02-15T04:45:21.289Z,50.38
2023-02-15T04:50:23.119Z,50.55
2023-02-15T04:55:24.909Z,46.35
2023-02-15T05:00:26.728Z,69.70
2023-02-15T05:05:28.492Z,72.22
2023-02-15T05:10:30.247Z,50.67
2023-02-15T05:15:32.066Z,58.85
2023-02-15T05:20:34.411Z,60.63
2023-02-15T05:25:54.502Z,49.65
2023-02-15T05:31:09.562Z,41.72
2023-02-15T05:36:11.914Z,54.47
2023-02-15T05:41:13.758Z,50.20
2023-02-15T05:46:15.745Z,51.72
2023-02-15T05:51:17.961Z,56.67
2023-02-15T05:56:19.761Z,50.08
2023-02-15T06:01:23.582Z,51.75
2023-02-15T06:06:25.520Z,65.20
2023-02-15T06:11:27.298Z,49.90
2023-02-15T06:16:29.102Z,51.28
2023-02-15T06:21:32.044Z,51.05
2023-02-15T06:26:34.076Z,48.25
2023-02-15T06:31:35.950Z,52.00
2023-02-15T06:36:37.913Z,58.53
2023-02-15T06:41:40.353Z,52.78
2023-02-15T06:46:42.180Z,50.10
2023-02-15T06:51:44.065Z,56.25
2023-02-15T06:56:45.868Z,46.75
2023-02-15T07:01:47.646Z,58.03
2023-02-15T07:06:49.449Z,55.47
2023-02-15T07:12:09.995Z,50.47
2023-02-15T07:17:32.632Z,54.58
2023-02-15T07:22:35.129Z,47.60
2023-02-15T07:27:37.063Z,55.28
2023-02-15T07:32:58.850Z,58.83
2023-02-15T07:38:01.813Z,63.05
2023-02-15T07:43:03.685Z,58.22
2023-02-15T07:48:06.657Z,60.22
2023-02-15T07:53:08.427Z,50.70
2023-02-15T07:58:10.231Z,60.30
2023-02-15T08:03:14.802Z,64.07
2023-02-15T08:08:31.861Z,57.65
2023-02-15T08:13:33.726Z,65.20
2023-02-15T08:18:35.660Z,59.63
2023-02-15T08:23:37.450Z,60.55
2023-02-15T08:28:39.955Z,61.58
2023-02-15T08:33:43.994Z,64.15
2023-02-15T08:38:46.047Z,61.65
2023-02-15T08:43:52.080Z,59.33
2023-02-15T08:48:54.325Z,57.17
2023-02-15T08:53:58.367Z,54.92
2023-02-15T08:59:00.916Z,51.53
2023-02-15T09:04:06.262Z,50.80
2023-02-15T09:09:08.951Z,52.42
2023-02-15T09:14:16.562Z,49.38
2023-02-15T09:19:20.226Z,50.92
2023-02-15T09:24:22.072Z,45.47
2023-02-15T09:29:24.312Z,47.45
2023-02-15T09:34:26.105Z,45.25
2023-02-15T09:39:28.964Z,55.13
2023-02-15T09:45:08.323Z,44.55
2023-02-15T09:50:15.794Z,46.97
2023-02-15T09:55:56.172Z,52.28
2023-02-15T10:01:06.104Z,31.42
2023-02-15T10:06:42.625Z,35.92
2023-02-15T10:12:10.085Z,54.38
2023-02-15T10:17:39.878Z,44.63
2023-02-15T10:22:59.221Z,55.92
2023-02-15T10:28:07.066Z,48.70
2023-02-15T10:33:43.855Z,45.88
2023-02-15T10:39:02.100Z,47.90
2023-02-15T10:44:13.030Z,35.65
2023-02-15T10:49:20.353Z,44.88
2023-02-15T10:54:37.478Z,38.88
2023-02-15T10:59:57.081Z,41.17
2023-02-15T11:05:27.396Z,41.42
2023-02-15T11:11:14.950Z,39.50
2023-02-15T11:16:22.085Z,35.38
2023-02-15T11:21:39.947Z,38.15
2023-02-15T11:26:43.692Z,40.05
2023-02-15T11:31:52.015Z,38.13
2023-02-15T11:37:02.124Z,35.97
2023-02-15T11:42:13.754Z,37.60
2023-02-15T11:47:15.948Z,39.63
2023-02-15T11:52:19.514Z,37.42
2023-02-15T11:57:41.754Z,39.10
2023-02-15T12:02:49.127Z,44.22
2023-02-15T12:08:04.863Z,35.97
2023-02-15T12:13:09.652Z,39.55
2023-02-15T12:18:33.752Z,36.10
2023-02-15T12:23:42.078Z,42.47
2023-02-15T12:28:50.370Z,37.13
2023-02-15T12:33:59.174Z,38.55
2023-02-15T12:39:13.327Z,42.15
2023-02-15T12:44:24.250Z,43.80
2023-02-15T12:49:27.581Z,44.95
2023-02-15T12:54:37.836Z,39.58
2023-02-15T12:59:59.066Z,50.33
2023-02-15T13:05:28.463Z,41.25
2023-02-15T13:10:36.359Z,43.25
2023-02-15T13:15:42.041Z,36.30
2023-02-15T13:20:46.161Z,49.45
2023-02-15T13:25:51.330Z,38.42
2023-02-15T13:30:53.472Z,39.10
2023-02-15T13:36:13.759Z,36.95
2023-02-15T13:41:36.494Z,40.22
2023-02-15T13:46:59.244Z,38.10
2023-02-15T13:52:07.137Z,38.20
2023-02-15T13:57:27.657Z,37.45
2023-02-15T14:03:01.387Z,42.05
2023-02-15T14:08:11.184Z,40.13
2023-02-15T14:13:28.283Z,60.87
2023-02-15T14:19:00.641Z,44.50
2023-02-15T14:24:33.451Z,41.00
2023-02-15T14:29:47.356Z,39.38
2023-02-15T14:35:00.167Z,43.17
2023-02-15T14:40:30.190Z,45.75
2023-02-15T14:45:43.926Z,36.27
2023-02-15T14:50:49.469Z,44.80
2023-02-15T14:56:11.551Z,49.70
2023-02-15T15:01:16.078Z,46.63
2023-02-15T15:06:31.468Z,45.53
2023-02-15T15:11:51.143Z,38.28
2023-02-15T15:16:53.300Z,37.97
2023-02-15T15:21:56.376Z,47.53
2023-02-15T15:27:35.505Z,40.95
2023-02-15T15:32:39.972Z,43.97
2023-02-15T15:38:05.732Z,47.00
2023-02-15T15:43:22.323Z,36.97
2023-02-15T15:48:34.817Z,42.28
2023-02-15T15:53:48.105Z,38.88
2023-02-15T15:59:01.099Z,43.60
2023-02-15T16:04:02.902Z,38.45
2023-02-15T16:09:23.176Z,41.75
2023-02-15T16:14:31.213Z,40.15
2023-02-15T16:19:41.781Z,42.85
2023-02-15T16:24:46.326Z,32.30
2023-02-15T16:29:48.077Z,44.33
2023-02-15T16:34:53.736Z,46.63
2023-02-15T16:39:56.606Z,47.28
2023-02-15T16:45:13.820Z,47.00
2023-02-15T16:50:27.282Z,43.65
2023-02-15T16:55:35.593Z,45.10
2023-02-15T17:00:42.808Z,46.70
2023-02-15T17:05:54.510Z,35.95
2023-02-15T17:11:17.100Z,51.72
2023-02-15T17:16:30.901Z,52.83
2023-02-15T17:21:38.358Z,52.47
2023-02-15T17:26:40.392Z,57.05
2023-02-15T17:31:47.573Z,54.97
2023-02-15T17:37:03.333Z,55.47
2023-02-15T17:42:05.747Z,50.00
2023-02-15T17:47:08.163Z,57.95
2023-02-15T17:52:14.722Z,46.60
2023-02-15T17:57:16.944Z,50.67
2023-02-15T18:02:37.295Z,51.22
2023-02-15T18:07:57.949Z,54.25
2023-02-15T18:12:59.793Z,41.35
2023-02-15T18:18:02.677Z,54.63
2023-02-15T18:23:04.538Z,48.05
2023-02-15T18:28:06.600Z,51.05
2023-02-15T18:33:28.488Z,53.85
2023-02-15T18:38:31.057Z,50.67
2023-02-15T18:43:32.894Z,46.97
2023-02-15T18:48:34.749Z,53.03
2023-02-15T18:53:39.442Z,51.80
2023-02-15T18:58:43.058Z,52.08
2023-02-15T19:03:50.253Z,58.05
2023-02-15T19:08:53.163Z,59.28
2023-02-15T19:13:55.336Z,56.42
2023-02-15T19:18:57.247Z,57.17
2023-02-15T19:24:10.641Z,57.50
2023-02-15T19:29:14.939Z,51.97
2023-02-15T19:34:18.483Z,63.35
2023-02-15T19:39:35.168Z,57.08
2023-02-15T19:44:44.096Z,55.72
2023-02-15T19:49:46.371Z,64.65
2023-02-15T19:54:49.236Z,53.47
2023-02-15T19:59:51.122Z,58.28
2023-02-15T20:04:52.934Z,51.55
2023-02-15T20:09:56.175Z,58.38
2023-02-15T20:14:59.180Z,59.83
2023-02-15T20:20:01.069Z,52.58
2023-02-15T20:25:03.286Z,67.68
2023-02-15T20:30:14.529Z,57.90
2023-02-15T20:35:22.642Z,58.45
2023-02-15T20:40:33.524Z,54.08
2023-02-15T20:50:37.416Z,58.58
2023-02-15T20:55:39.182Z,55.80
2023-02-15T21:00:40.930Z,68.72
2023-02-15T21:05:45.386Z,58.75
2023-02-15T21:10:49.030Z,67.15
2023-02-15T21:15:53.159Z,57.55
2023-02-15T21:20:58.443Z,53.72
2023-02-15T21:26:00.534Z,51.60
2023-02-15T21:31:03.281Z,52.92
2023-02-15T21:36:08.867Z,55.97
2023-02-15T21:41:37.326Z,62.80
2023-02-15T21:46:42.117Z,60.55
2023-02-15T21:52:02.635Z,60.67
2023-02-15T21:57:04.594Z,40.05
2023-02-15T22:02:27.534Z,60.83
2023-02-15T22:07:29.405Z,58.58
2023-02-15T22:12:31.210Z,54.70
2023-02-15T22:17:34.474Z,52.97
2023-02-15T22:22:36.268Z,52.30
2023-02-15T22:27:40.523Z,57.03
2023-02-15T22:32:42.297Z,56.38
2023-02-15T22:37:44.166Z,57.17
2023-02-15T22:42:48.582Z,61.50
2023-02-15T22:47:53.257Z,55.50
2023-02-15T22:52:55.666Z,65.00
2023-02-15T22:57:58.114Z,58.28
2023-02-15T23:03:00.658Z,55.97
2023-02-15T23:08:02.465Z,64.45
2023-02-15T23:13:24.929Z,58.17
2023-02-15T23:18:41.628Z,67.97
2023-02-15T23:23:45.787Z,61.15
2023-02-15T23:28:48.036Z,64.35
2023-02-15T23:33:50.357Z,67.68
2023-02-15T23:38:53.077Z,55.17
2023-02-15T23:44:02.963Z,59.10
2023-02-15T23:49:14.825Z,60.77
2023-02-15T23:54:18.560Z,56.13
2023-02-15T23:59:28.449Z,60.70
